Koniz, Switzerland
Current Conditions -  °F | °C
As of 4:50 PM on Friday 24 Oct 2014 (Local Time) from LSZB Reporting Station
Clear Clear  
Wind Chill: 52°   Ceiling: Unl
Heat Index: 52°   Visibility: 6mi
Dew Point: 41°   Wind: 6mph
Humidity: 67%   Direction: 290°WNW
Pressure: 30.09"   Gusts: NA
Location:  46.93°N, 7.42°E
Report Text: LSZB 241450Z 29005KT CAVOK 11/05 Q1019 NOSIG
Loading
Personal Weather Stations






























Interactive Weather Map
Tropical Storm Tracking
New forecast layout! Learn more

10-Day Weather Forecast

Advertisements
Track Severe Weather on mobile